createdAt,value
2022-08-17T00:00:34.312Z,4.40
2022-08-17T00:03:09.993Z,4.50
2022-08-17T00:05:41.507Z,4.00
2022-08-17T00:08:09.543Z,3.80
2022-08-17T00:10:39.483Z,3.83
2022-08-17T00:13:09.520Z,4.20
2022-08-17T00:15:37.918Z,4.10
2022-08-17T00:19:06.236Z,4.10
2022-08-17T00:20:54.620Z,4.10
2022-08-17T00:23:22.449Z,4.40
2022-08-17T00:25:52.514Z,4.23
2022-08-17T00:28:21.606Z,4.37
2022-08-17T00:30:52.914Z,4.00
2022-08-17T00:33:24.151Z,4.20
2022-08-17T00:35:52.189Z,4.07
2022-08-17T00:38:20.734Z,3.87
2022-08-17T00:40:52.694Z,4.10
2022-08-17T00:43:30.002Z,3.80
2022-08-17T00:45:58.975Z,4.33
2022-08-17T00:48:30.182Z,4.20
2022-08-17T00:51:10.476Z,4.40
2022-08-17T00:53:42.207Z,4.10
2022-08-17T00:56:20.957Z,4.20
2022-08-17T00:58:50.436Z,4.33
2022-08-17T01:01:21.236Z,4.60
2022-08-17T01:03:51.402Z,3.73
2022-08-17T01:06:19.363Z,4.20
2022-08-17T01:08:47.650Z,3.93
2022-08-17T01:11:17.177Z,4.70
2022-08-17T01:13:45.335Z,4.13
2022-08-17T01:16:19.063Z,4.80
2022-08-17T01:18:49.959Z,4.30
2022-08-17T01:21:25.744Z,3.87
2022-08-17T01:23:54.926Z,4.40
2022-08-17T01:26:23.855Z,4.10
2022-08-17T01:28:55.416Z,4.53
2022-08-17T01:31:25.178Z,4.00
2022-08-17T01:33:53.239Z,4.23
2022-08-17T01:36:21.342Z,4.47
2022-08-17T01:38:49.157Z,4.53
2022-08-17T01:41:20.386Z,4.30
2022-08-17T01:43:52.317Z,4.37
2022-08-17T01:46:23.658Z,4.43
2022-08-17T01:48:51.643Z,4.40
2022-08-17T01:51:20.484Z,4.27
2022-08-17T01:53:51.444Z,4.37
2022-08-17T01:56:24.303Z,4.57
2022-08-17T01:58:53.286Z,5.10
2022-08-17T02:01:24.582Z,4.40
2022-08-17T02:03:59.253Z,4.47
2022-08-17T02:06:30.496Z,4.60
2022-08-17T02:09:02.213Z,4.33
2022-08-17T02:11:34.194Z,4.43
2022-08-17T02:14:04.061Z,4.90
2022-08-17T02:16:36.711Z,5.10
2022-08-17T02:19:07.508Z,4.70
2022-08-17T02:21:36.452Z,4.77
2022-08-17T02:24:05.843Z,4.67
2022-08-17T02:26:35.094Z,4.73
2022-08-17T02:29:03.976Z,4.40
2022-08-17T02:31:32.347Z,4.77
2022-08-17T02:34:04.394Z,4.43
2022-08-17T02:36:33.986Z,4.73
2022-08-17T02:39:02.506Z,4.87
2022-08-17T02:41:30.402Z,4.90
2022-08-17T02:43:59.605Z,4.57
2022-08-17T02:46:28.277Z,4.20
2022-08-17T02:48:56.264Z,4.60
2022-08-17T02:51:24.055Z,4.87
2022-08-17T02:53:51.902Z,5.10
2022-08-17T02:56:19.831Z,4.37
2022-08-17T02:58:47.697Z,4.50
2022-08-17T03:01:17.064Z,4.73
2022-08-17T03:03:45.090Z,4.50
2022-08-17T03:06:12.887Z,4.77
2022-08-17T03:08:40.725Z,4.80
2022-08-17T03:11:08.684Z,4.63
2022-08-17T03:13:36.498Z,4.47
2022-08-17T03:16:04.782Z,4.80
2022-08-17T03:18:33.912Z,4.23
2022-08-17T03:21:04.303Z,4.43
2022-08-17T03:23:33.668Z,5.10
2022-08-17T03:26:01.875Z,4.37
2022-08-17T03:28:30.079Z,4.70
2022-08-17T03:30:57.837Z,4.40
2022-08-17T03:33:25.784Z,4.97
2022-08-17T03:35:54.932Z,4.70
2022-08-17T03:38:23.256Z,4.27
2022-08-17T03:40:57.713Z,4.33
2022-08-17T03:43:31.644Z,4.30
2022-08-17T03:46:28.726Z,4.20
2022-08-17T03:49:24.225Z,3.80
2022-08-17T03:52:11.205Z,4.23
2022-08-17T03:54:56.984Z,3.80
2022-08-17T03:57:25.699Z,4.07
2022-08-17T03:59:53.876Z,3.83
2022-08-17T04:02:25.263Z,3.63
2022-08-17T04:04:53.832Z,4.30
2022-08-17T04:07:25.135Z,4.20
2022-08-17T04:09:53.257Z,4.30
2022-08-17T04:12:23.621Z,4.33
2022-08-17T04:14:54.754Z,4.27
2022-08-17T04:17:25.305Z,4.93
2022-08-17T04:19:53.877Z,5.00
2022-08-17T04:22:31.906Z,4.43
2022-08-17T04:25:06.418Z,4.17
2022-08-17T04:27:34.485Z,4.37
2022-08-17T04:30:02.751Z,4.63
2022-08-17T04:33:00.766Z,4.20
2022-08-17T04:35:21.367Z,4.10
2022-08-17T04:37:51.515Z,4.23
2022-08-17T04:40:38.632Z,4.20
2022-08-17T04:43:09.325Z,4.27
2022-08-17T04:45:40.855Z,4.20
2022-08-17T04:48:34.725Z,4.30
2022-08-17T04:51:09.137Z,4.57
2022-08-17T04:53:38.963Z,4.47
2022-08-17T04:56:07.287Z,4.97
2022-08-17T04:58:35.151Z,4.63
2022-08-17T05:01:03.074Z,4.73
2022-08-17T05:03:31.259Z,4.70
2022-08-17T05:05:59.060Z,4.70
2022-08-17T05:08:27.017Z,4.50
2022-08-17T05:10:56.272Z,4.50
2022-08-17T05:13:26.048Z,4.60
2022-08-17T05:15:57.151Z,5.27
2022-08-17T05:18:25.452Z,4.80
2022-08-17T05:20:54.150Z,5.00
2022-08-17T05:23:24.324Z,4.50
2022-08-17T05:25:55.203Z,4.70
2022-08-17T05:28:28.072Z,4.60
2022-08-17T05:31:01.191Z,4.90
2022-08-17T05:33:31.555Z,3.70
2022-08-17T05:36:00.683Z,4.30
2022-08-17T05:38:30.376Z,4.50
2022-08-17T05:40:59.077Z,3.97
2022-08-17T05:43:31.062Z,4.70
2022-08-17T05:46:03.927Z,4.13
2022-08-17T05:48:40.094Z,4.37
2022-08-17T05:51:38.814Z,4.90
2022-08-17T05:54:16.560Z,4.00
2022-08-17T05:57:07.308Z,3.80
2022-08-17T05:59:49.256Z,4.10
2022-08-17T06:02:25.433Z,4.27
2022-08-17T06:05:11.536Z,3.80
2022-08-17T06:07:49.489Z,4.07
2022-08-17T06:10:29.034Z,3.67
2022-08-17T06:13:10.791Z,3.90
2022-08-17T06:15:54.104Z,4.90
2022-08-17T06:18:25.405Z,3.83
2022-08-17T06:20:57.392Z,4.23
2022-08-17T06:23:31.371Z,3.87
2022-08-17T06:26:05.223Z,4.40
2022-08-17T06:28:39.339Z,3.90
2022-08-17T06:31:16.595Z,4.10
2022-08-17T06:33:45.575Z,4.17
2022-08-17T06:36:24.000Z,4.10
2022-08-17T06:39:04.082Z,4.40
2022-08-17T06:41:41.763Z,4.00
2022-08-17T06:44:42.279Z,4.03
2022-08-17T06:47:11.109Z,3.93
2022-08-17T06:49:49.546Z,4.17
2022-08-17T06:52:43.387Z,4.40
2022-08-17T06:55:19.421Z,4.23
2022-08-17T06:57:51.027Z,4.20
2022-08-17T07:00:22.241Z,4.50
2022-08-17T07:02:57.798Z,4.40
2022-08-17T07:05:27.756Z,4.20
2022-08-17T07:08:04.994Z,4.90
2022-08-17T07:10:38.971Z,4.83
2022-08-17T07:13:25.408Z,4.60
2022-08-17T07:15:57.720Z,4.17
2022-08-17T07:18:33.125Z,4.57
2022-08-17T07:21:11.927Z,5.30
2022-08-17T07:24:04.292Z,4.37
2022-08-17T07:26:32.095Z,5.57
2022-08-17T07:29:02.267Z,4.70
2022-08-17T07:31:33.665Z,4.90
2022-08-17T07:34:08.314Z,4.70
2022-08-17T07:36:36.146Z,4.50
2022-08-17T07:39:06.070Z,4.60
2022-08-17T07:41:58.072Z,5.60
2022-08-17T07:44:27.613Z,4.63
2022-08-17T07:47:13.669Z,4.73
2022-08-17T07:49:46.130Z,4.63
2022-08-17T07:52:51.186Z,4.60
2022-08-17T07:55:40.494Z,4.30
2022-08-17T07:58:09.348Z,4.97
2022-08-17T08:00:37.252Z,4.87
2022-08-17T08:03:16.876Z,4.83
2022-08-17T08:05:56.212Z,4.40
2022-08-17T08:08:34.017Z,5.00
2022-08-17T08:11:07.156Z,5.07
2022-08-17T08:13:40.438Z,4.72
2022-08-17T08:16:30.173Z,4.37
2022-08-17T08:19:02.533Z,6.35
2022-08-17T08:21:43.430Z,5.00
2022-08-17T08:24:34.741Z,6.10
2022-08-17T08:27:15.967Z,5.03
2022-08-17T08:29:53.969Z,5.10
2022-08-17T08:32:34.526Z,5.23
2022-08-17T08:35:06.530Z,5.70
2022-08-17T08:37:47.486Z,4.93
2022-08-17T08:40:33.425Z,4.97
2022-08-17T08:43:16.138Z,4.93
2022-08-17T08:45:56.577Z,5.28
2022-08-17T08:49:00.980Z,5.35
2022-08-17T08:51:46.152Z,4.93
2022-08-17T08:54:28.457Z,5.20
2022-08-17T09:00:05.132Z,5.07
2022-08-17T09:03:08.682Z,4.87
2022-08-17T09:05:52.724Z,5.30
2022-08-17T09:08:31.817Z,9.17
2022-08-17T09:11:06.911Z,5.50
2022-08-17T09:13:44.835Z,5.30
2022-08-17T09:16:17.332Z,5.40
2022-08-17T09:19:02.199Z,5.30
2022-08-17T09:21:47.956Z,5.57
2022-08-17T09:24:24.809Z,5.10
2022-08-17T09:26:59.368Z,4.63
2022-08-17T09:29:35.012Z,5.33
2022-08-17T09:32:05.786Z,5.50
2022-08-17T09:34:38.609Z,4.82
2022-08-17T09:37:20.149Z,5.35
2022-08-17T09:39:56.076Z,5.78
2022-08-17T09:42:31.084Z,5.20
2022-08-17T09:45:10.826Z,6.60
2022-08-17T09:47:45.485Z,5.43
2022-08-17T09:50:20.103Z,9.63
2022-08-17T09:53:08.971Z,5.13
2022-08-17T09:55:49.554Z,5.53
2022-08-17T09:58:25.697Z,5.10
2022-08-17T10:01:04.046Z,5.05
2022-08-17T10:03:52.718Z,5.63
2022-08-17T10:06:25.391Z,4.97
2022-08-17T10:09:06.365Z,4.70
2022-08-17T10:11:54.580Z,5.43
2022-08-17T10:14:36.228Z,5.30
2022-08-17T10:17:11.148Z,5.15
2022-08-17T10:19:44.277Z,5.13
2022-08-17T10:22:37.939Z,5.68
2022-08-17T10:25:37.565Z,5.00
2022-08-17T10:28:19.972Z,5.28
2022-08-17T10:31:10.393Z,5.10
2022-08-17T10:33:55.889Z,5.22
2022-08-17T10:36:30.021Z,4.50
2022-08-17T10:39:10.612Z,4.40
2022-08-17T10:41:42.750Z,4.45
2022-08-17T10:44:40.358Z,5.07
2022-08-17T10:47:14.380Z,5.00
2022-08-17T10:49:47.576Z,4.90
2022-08-17T10:52:52.123Z,5.35
2022-08-17T10:55:21.304Z,4.80
2022-08-17T10:57:51.212Z,4.90
2022-08-17T11:01:12.584Z,5.57
2022-08-17T11:03:54.954Z,4.50
2022-08-17T11:06:32.067Z,4.57
2022-08-17T11:09:28.527Z,4.70
2022-08-17T11:12:21.403Z,5.18
2022-08-17T11:15:00.357Z,4.75
2022-08-17T11:18:15.885Z,5.35
2022-08-17T11:21:20.319Z,5.43
2022-08-17T11:24:15.338Z,5.60
2022-08-17T11:26:48.791Z,5.30
2022-08-17T11:29:24.762Z,5.60
2022-08-17T11:32:02.910Z,4.90
2022-08-17T11:34:33.019Z,5.30
2022-08-17T11:37:21.607Z,5.28
2022-08-17T11:40:12.202Z,4.93
2022-08-17T11:43:03.318Z,5.00
2022-08-17T11:45:51.661Z,5.18
2022-08-17T11:48:50.699Z,5.13
2022-08-17T11:51:34.551Z,4.65
2022-08-17T11:54:32.736Z,4.82
2022-08-17T11:56:55.483Z,4.72
2022-08-17T12:00:00.255Z,4.68
2022-08-17T12:02:47.349Z,4.80
2022-08-17T12:05:30.955Z,4.35
2022-08-17T12:08:08.429Z,4.80
2022-08-17T12:10:49.882Z,4.78
2022-08-17T12:13:19.137Z,4.60
2022-08-17T12:15:50.349Z,4.38
2022-08-17T12:18:24.440Z,4.22
2022-08-17T12:21:26.186Z,3.97
2022-08-17T12:24:00.505Z,4.57
2022-08-17T12:26:33.160Z,4.43
2022-08-17T12:29:03.121Z,3.58
2022-08-17T12:31:36.769Z,3.35
2022-08-17T12:34:05.474Z,3.35
2022-08-17T12:36:34.022Z,3.28
2022-08-17T12:39:12.805Z,3.40
2022-08-17T12:41:47.737Z,3.35
2022-08-17T12:44:20.799Z,3.30
2022-08-17T12:46:55.524Z,3.28
2022-08-17T12:49:30.730Z,3.58
2022-08-17T12:52:05.630Z,3.30
2022-08-17T12:54:41.225Z,3.28
2022-08-17T12:57:14.918Z,3.70
2022-08-17T12:59:46.174Z,3.00
2022-08-17T13:02:22.843Z,3.25
2022-08-17T13:04:51.211Z,3.47
2022-08-17T13:07:30.990Z,3.17
2022-08-17T13:09:59.110Z,3.45
2022-08-17T13:12:30.387Z,3.20
2022-08-17T13:14:58.633Z,3.13
2022-08-17T13:17:30.029Z,3.10
2022-08-17T13:19:58.246Z,3.47
2022-08-17T13:22:28.062Z,3.22
2022-08-17T13:24:58.589Z,3.05
2022-08-17T13:27:29.806Z,3.20
2022-08-17T13:30:00.865Z,3.45
2022-08-17T13:32:43.997Z,3.17
2022-08-17T13:35:50.104Z,3.40
2022-08-17T13:38:40.413Z,3.55
2022-08-17T13:41:08.806Z,3.28
2022-08-17T13:43:50.526Z,3.47
2022-08-17T13:46:21.515Z,3.60
2022-08-17T13:49:00.109Z,3.65
2022-08-17T13:51:34.736Z,3.22
2022-08-17T13:54:07.743Z,3.35
2022-08-17T13:56:47.690Z,3.13
2022-08-17T13:59:36.354Z,3.25
2022-08-17T14:02:18.592Z,3.05
2022-08-17T14:04:49.388Z,3.25
2022-08-17T14:07:29.433Z,3.20
2022-08-17T14:10:01.896Z,3.33
2022-08-17T14:12:32.982Z,3.38
2022-08-17T14:15:02.763Z,3.28
2022-08-17T14:17:35.072Z,2.97
2022-08-17T14:20:07.732Z,2.95
2022-08-17T14:22:38.101Z,3.30
2022-08-17T14:25:10.321Z,3.03
2022-08-17T14:27:51.736Z,3.08
2022-08-17T14:30:25.023Z,2.85
2022-08-17T14:32:53.638Z,2.47
2022-08-17T14:35:23.735Z,2.30
2022-08-17T14:37:52.646Z,2.75
2022-08-17T14:40:24.572Z,2.60
2022-08-17T14:42:55.017Z,2.58
2022-08-17T14:45:30.293Z,2.38
2022-08-17T14:48:02.647Z,2.50
2022-08-17T14:50:30.497Z,2.70
2022-08-17T14:53:01.421Z,2.30
2022-08-17T14:55:29.732Z,2.60
2022-08-17T14:57:57.589Z,2.70
2022-08-17T15:00:27.070Z,2.53
2022-08-17T15:02:56.554Z,2.83
2022-08-17T15:05:26.820Z,2.53
2022-08-17T15:07:55.695Z,2.80
2022-08-17T15:10:25.851Z,2.55
2022-08-17T15:12:54.411Z,2.78
2022-08-17T15:15:22.239Z,2.45
2022-08-17T15:17:52.168Z,2.50
2022-08-17T15:20:22.017Z,2.45
2022-08-17T15:22:50.928Z,2.50
2022-08-17T15:25:19.882Z,2.63
2022-08-17T15:27:47.817Z,2.80
2022-08-17T15:30:16.126Z,2.97
2022-08-17T15:32:51.415Z,2.70
2022-08-17T15:35:27.288Z,2.70
2022-08-17T15:37:58.200Z,2.60
2022-08-17T15:40:26.044Z,2.80
2022-08-17T15:42:53.947Z,2.97
2022-08-17T15:45:24.827Z,3.10
2022-08-17T15:47:53.166Z,3.20
2022-08-17T15:50:21.010Z,3.38
2022-08-17T15:52:55.982Z,2.97
2022-08-17T15:55:24.429Z,3.25
2022-08-17T15:57:52.994Z,3.20
2022-08-17T16:00:23.548Z,3.25
2022-08-17T16:03:44.370Z,3.33
2022-08-17T16:05:40.994Z,3.13
2022-08-17T16:08:11.086Z,3.15
2022-08-17T16:10:39.289Z,3.20
2022-08-17T16:13:17.532Z,3.45
2022-08-17T16:15:51.148Z,3.58
2022-08-17T16:18:30.997Z,3.53
2022-08-17T16:21:19.762Z,3.30
2022-08-17T16:23:50.189Z,3.17
2022-08-17T16:26:19.061Z,3.20
2022-08-17T16:28:47.366Z,3.40
2022-08-17T16:31:15.620Z,3.40
2022-08-17T16:34:15.662Z,3.50
2022-08-17T16:36:32.497Z,3.33
2022-08-17T16:39:01.728Z,3.10
2022-08-17T16:41:44.429Z,3.15
2022-08-17T16:44:15.336Z,3.50
2022-08-17T16:46:45.678Z,3.30
2022-08-17T16:49:35.384Z,3.03
2022-08-17T16:52:04.247Z,3.53
2022-08-17T16:54:35.240Z,3.42
2022-08-17T16:57:04.887Z,3.05
2022-08-17T16:59:42.162Z,3.45
2022-08-17T17:02:14.969Z,3.42
2022-08-17T17:04:51.067Z,3.20
2022-08-17T17:07:34.727Z,3.45
2022-08-17T17:10:08.601Z,3.38
2022-08-17T17:13:01.586Z,3.65
2022-08-17T17:15:47.196Z,3.80
2022-08-17T17:18:16.795Z,3.65
2022-08-17T17:20:53.474Z,3.47
2022-08-17T17:23:33.191Z,3.60
2022-08-17T17:26:10.920Z,3.63
2022-08-17T17:28:49.462Z,3.72
2022-08-17T17:31:20.533Z,3.33
2022-08-17T17:33:52.665Z,4.13
2022-08-17T17:36:27.641Z,3.72
2022-08-17T17:39:01.325Z,3.63
2022-08-17T17:41:34.562Z,3.88
2022-08-17T17:44:07.839Z,3.42
2022-08-17T17:46:39.421Z,3.88
2022-08-17T17:49:10.064Z,3.85
2022-08-17T17:52:07.922Z,3.78
2022-08-17T17:54:51.088Z,3.80
2022-08-17T17:57:29.714Z,3.90
2022-08-17T18:00:04.379Z,4.40
2022-08-17T18:02:52.131Z,4.38
2022-08-17T18:05:35.892Z,4.65
2022-08-17T18:08:13.156Z,4.53
2022-08-17T18:10:49.137Z,4.72
2022-08-17T18:13:27.779Z,4.65
2022-08-17T18:16:00.884Z,4.40
2022-08-17T18:18:38.520Z,4.30
2022-08-17T18:21:16.651Z,4.65
2022-08-17T18:23:50.794Z,4.25
2022-08-17T18:26:37.513Z,5.05
2022-08-17T18:29:22.196Z,4.80
2022-08-17T18:31:52.508Z,4.65
2022-08-17T18:37:16.090Z,4.32
2022-08-17T18:39:47.522Z,4.63
2022-08-17T18:42:26.179Z,5.68
2022-08-17T18:44:56.512Z,5.50
2022-08-17T18:47:26.631Z,4.40
2022-08-17T18:49:57.788Z,5.07
2022-08-17T18:52:28.779Z,4.65
2022-08-17T18:55:08.509Z,4.70
2022-08-17T18:57:40.641Z,4.47
2022-08-17T19:00:18.193Z,5.05
2022-08-17T19:02:52.849Z,5.03
2022-08-17T19:05:32.361Z,7.43
2022-08-17T19:08:17.196Z,6.80
2022-08-17T19:10:47.407Z,5.90
2022-08-17T19:13:23.885Z,6.85
2022-08-17T19:16:11.394Z,6.75
2022-08-17T19:18:47.357Z,6.53
2022-08-17T19:21:21.174Z,6.18
2022-08-17T19:23:54.585Z,6.20
2022-08-17T19:26:54.572Z,5.05
2022-08-17T19:29:19.567Z,7.38
2022-08-17T19:31:52.762Z,6.25
2022-08-17T19:34:33.598Z,6.10
2022-08-17T19:37:08.903Z,6.25
2022-08-17T19:39:47.991Z,5.07
2022-08-17T19:42:28.323Z,4.47
2022-08-17T19:45:04.392Z,5.43
2022-08-17T19:47:54.792Z,6.37
2022-08-17T19:50:41.019Z,5.80
2022-08-17T19:53:21.201Z,5.80
2022-08-17T19:55:57.322Z,5.73
2022-08-17T19:58:39.135Z,5.20
2022-08-17T20:01:13.828Z,6.03
2022-08-17T20:03:52.077Z,5.07
2022-08-17T20:06:22.416Z,5.10
2022-08-17T20:08:58.482Z,5.40
2022-08-17T20:11:33.876Z,5.27
2022-08-17T20:14:07.827Z,5.33
2022-08-17T20:16:35.702Z,5.40
2022-08-17T20:19:08.980Z,6.10
2022-08-17T20:21:41.635Z,5.67
2022-08-17T20:24:20.894Z,5.77
2022-08-17T20:26:58.121Z,5.63
2022-08-17T20:29:39.640Z,5.97
2022-08-17T20:32:19.707Z,6.20
2022-08-17T20:34:49.466Z,6.00
2022-08-17T20:37:30.787Z,6.30
2022-08-17T20:40:31.006Z,6.87
2022-08-17T20:42:59.839Z,6.20
2022-08-17T20:46:03.553Z,6.43
2022-08-17T20:48:39.475Z,6.10
2022-08-17T20:51:19.005Z,6.23
2022-08-17T20:54:28.695Z,6.13
2022-08-17T20:56:58.647Z,6.27
2022-08-17T20:59:56.204Z,6.40
2022-08-17T21:02:26.561Z,6.17
2022-08-17T21:05:21.594Z,6.60
2022-08-17T21:07:59.571Z,6.20
2022-08-17T21:10:37.971Z,7.10
2022-08-17T21:13:30.210Z,7.03
2022-08-17T21:16:01.818Z,7.03
2022-08-17T21:18:38.758Z,6.80
2022-08-17T21:21:22.122Z,5.80
2022-08-17T21:24:11.998Z,5.77
2022-08-17T21:26:53.707Z,5.43
2022-08-17T21:29:30.943Z,5.40
2022-08-17T21:32:24.154Z,5.83
2022-08-17T21:35:26.677Z,5.60
2022-08-17T21:38:02.327Z,5.97
2022-08-17T21:40:34.758Z,5.87
2022-08-17T21:43:17.915Z,6.03
2022-08-17T21:45:56.580Z,6.50
2022-08-17T21:48:27.088Z,6.17
2022-08-17T21:51:03.641Z,6.00
2022-08-17T21:53:39.560Z,7.90
2022-08-17T21:56:11.063Z,6.80
2022-08-17T21:58:45.394Z,6.07
2022-08-17T22:01:25.514Z,6.50
2022-08-17T22:04:01.342Z,6.23
2022-08-17T22:06:34.546Z,6.63
2022-08-17T22:09:13.041Z,6.53
2022-08-17T22:12:09.029Z,6.60
2022-08-17T22:14:52.154Z,5.60
2022-08-17T22:17:24.056Z,5.87
2022-08-17T22:19:54.998Z,5.87
2022-08-17T22:22:33.469Z,5.90
2022-08-17T22:25:02.941Z,7.00
2022-08-17T22:27:54.330Z,7.03
2022-08-17T22:30:33.014Z,6.47
2022-08-17T22:33:02.789Z,6.30
2022-08-17T22:35:40.437Z,6.17
2022-08-17T22:38:30.084Z,5.50
2022-08-17T22:41:31.889Z,6.40
2022-08-17T22:44:09.837Z,6.10
2022-08-17T22:46:41.974Z,6.10
2022-08-17T22:49:09.833Z,6.37
2022-08-17T22:51:38.199Z,5.80
2022-08-17T22:54:37.254Z,5.87
2022-08-17T22:57:24.069Z,6.20
2022-08-17T22:59:56.067Z,6.60
2022-08-17T23:02:26.518Z,6.77
2022-08-17T23:04:59.246Z,6.20
2022-08-17T23:07:26.993Z,6.17
2022-08-17T23:09:55.332Z,6.57
2022-08-17T23:12:27.321Z,6.07
2022-08-17T23:15:02.222Z,6.17
2022-08-17T23:17:36.914Z,5.93
2022-08-17T23:20:08.529Z,6.23
2022-08-17T23:22:51.973Z,6.67
2022-08-17T23:25:26.973Z,6.00
2022-08-17T23:27:54.879Z,6.57
2022-08-17T23:30:25.359Z,6.70
2022-08-17T23:32:54.209Z,6.40
2022-08-17T23:35:39.198Z,6.50
2022-08-17T23:38:09.875Z,6.23
2022-08-17T23:40:39.391Z,6.50
2022-08-17T23:43:17.622Z,6.23
2022-08-17T23:45:54.909Z,6.50
2022-08-17T23:48:32.508Z,5.90
2022-08-17T23:51:04.218Z,6.20
2022-08-17T23:53:36.646Z,6.77
2022-08-17T23:56:09.466Z,6.23
2022-08-17T23:58:39.114Z,5.90
